Time;durP1;ratioP1;P1;durP2;ratioP2;P2;SDS_P1;SDS_P2;PMS_P1;PMS_P2;Temp;Humidity;BMP_temperature;BMP_pressure;BME280_temperature;BME280_humidity;BME280_pressure;Samples;Min_cycle;Max_cycle;Signal;HPM_P1;HPM_P2
2022/11/19 00:00:08;;;;;;;5.57;2.58;;;;;;;9.19;85.42;98621.88;342905;28;2911;-72
2022/11/19 00:00:20;;;;;;;4.38;2.40;;;;;;;9.19;85.34;98621.88;343205;28;1669;-72
2022/11/19 00:00:32;;;;;;;5.03;2.40;;;;;;;9.18;85.26;98623.63;343492;28;1085;-72
2022/11/19 00:00:45;;;;;;;4.72;2.53;;;;;;;9.20;85.46;98618.38;343510;28;1164;-72
2022/11/19 00:01:05;;;;;;;4.55;2.78;;;;;;;9.17;85.47;98623.69;343000;28;1241;-72
2022/11/19 00:01:26;;;;;;;3.28;2.50;;;;;;;9.23;85.33;98625.19;343735;28;1298;-72
2022/11/19 00:01:38;;;;;;;3.25;2.50;;;;;;;9.20;85.35;98623.56;344885;28;1032;-72
2022/11/19 00:01:50;;;;;;;3.15;2.30;;;;;;;9.28;84.96;98623.25;345032;28;1050;-72
2022/11/19 00:02:02;;;;;;;3.22;2.33;;;;;;;9.25;85.22;98625.97;344565;28;2093;-72
2022/11/19 00:02:16;;;;;;;4.15;2.60;;;;;;;9.25;84.96;98623.38;344821;28;1039;-72
2022/11/19 00:02:28;;;;;;;4.50;2.60;;;;;;;9.24;84.83;98617.34;344686;28;1225;-72
2022/11/19 00:02:40;;;;;;;3.30;2.38;;;;;;;9.26;84.94;98614.69;345029;28;1058;-72
2022/11/19 00:02:53;;;;;;;3.03;2.30;;;;;;;9.30;85.13;98624.03;344992;28;1059;-72
2022/11/19 00:03:05;;;;;;;3.05;2.25;;;;;;;9.28;84.98;98620.66;344849;28;1056;-72
2022/11/19 00:03:19;;;;;;;3.42;2.30;;;;;;;9.28;84.57;98625.84;344768;28;1246;-72
2022/11/19 00:03:33;;;;;;;3.33;2.30;;;;;;;9.26;84.91;98628.50;344580;28;1505;-72
2022/11/19 00:03:46;;;;;;;3.92;2.25;;;;;;;9.29;84.67;98617.13;344636;28;2117;-72
2022/11/19 00:04:06;;;;;;;4.43;2.35;;;;;;;9.26;84.81;98622.47;343982;28;1102;-72
2022/11/19 00:04:18;;;;;;;3.35;2.40;;;;;;;9.26;84.70;98619.88;343416;28;2227;-72
2022/11/19 00:04:30;;;;;;;3.13;2.45;;;;;;;9.26;84.86;98622.47;344870;28;1059;-72
2022/11/19 00:04:43;;;;;;;4.40;2.63;;;;;;;9.27;84.80;98619.78;344834;28;1205;-72
2022/11/19 00:04:54;;;;;;;4.18;2.40;;;;;;;9.24;85.49;98619.09;344873;28;1074;-72
2022/11/19 00:05:07;;;;;;;4.18;2.35;;;;;;;9.26;84.85;98622.47;344859;28;1043;-72
2022/11/19 00:05:19;;;;;;;3.40;2.20;;;;;;;9.25;84.99;98620.78;344862;28;1407;-73
2022/11/19 00:05:31;;;;;;;3.78;2.35;;;;;;;9.30;85.03;98618.84;344940;28;1092;-72
2022/11/19 00:05:46;;;;;;;4.63;2.50;;;;;;;9.31;84.56;98625.69;344581;28;1914;-72
2022/11/19 00:06:04;;;;;;;4.22;2.35;;;;;;;9.24;84.94;98619.09;344650;28;1263;-72
2022/11/19 00:06:22;;;;;;;4.90;2.40;;;;;;;9.25;84.77;98620.78;344663;28;1355;-72
2022/11/19 00:06:34;;;;;;;3.78;2.30;;;;;;;9.13;85.08;98622.97;344801;28;1217;-72
2022/11/19 00:06:46;;;;;;;3.28;2.20;;;;;;;9.18;85.01;98621.03;344634;28;2030;-72
2022/11/19 00:06:58;;;;;;;3.40;2.20;;;;;;;9.20;85.43;98621.81;343910;28;1652;-72
2022/11/19 00:07:10;;;;;;;2.97;2.28;;;;;;;9.16;84.96;98627.22;344195;28;1074;-72
2022/11/19 00:07:22;;;;;;;3.90;2.20;;;;;;;9.17;85.20;98616.75;344261;28;1171;-72
2022/11/19 00:07:34;;;;;;;4.30;2.28;;;;;;;9.22;85.12;98615.75;343632;28;1170;-73
2022/11/19 00:07:46;;;;;;;4.00;2.28;;;;;;;9.20;85.05;98624.41;343624;28;1181;-73
2022/11/19 00:07:58;;;;;;;3.05;2.20;;;;;;;9.20;84.89;98624.41;343640;28;1159;-72
2022/11/19 00:08:15;;;;;;;3.30;2.40;;;;;;;9.26;84.98;98618.13;343569;28;1027;-72
2022/11/19 00:08:27;;;;;;;3.88;2.45;;;;;;;9.22;85.18;98618.34;343962;28;1023;-72
2022/11/19 00:08:40;;;;;;;3.72;2.38;;;;;;;9.18;85.22;98621.03;343425;28;1047;-72
2022/11/19 00:08:53;;;;;;;4.25;2.50;;;;;;;9.19;85.35;98627.94;343635;28;1239;-72
2022/11/19 00:09:05;;;;;;;3.92;2.33;;;;;;;9.17;85.15;98619.34;344655;28;1287;-72
2022/11/19 00:09:17;;;;;;;3.83;2.20;;;;;;;9.16;84.73;98622.03;345267;28;1329;-72
2022/11/19 00:09:29;;;;;;;3.90;2.20;;;;;;;9.16;85.34;98617.69;344871;28;1055;-72
2022/11/19 00:09:41;;;;;;;3.90;2.15;;;;;;;9.12;85.43;98626.50;345080;28;2070;-72
2022/11/19 00:09:53;;;;;;;3.47;2.20;;;;;;;9.15;85.54;98622.91;344635;28;1035;-72
2022/11/19 00:10:05;;;;;;;3.58;2.35;;;;;;;9.15;85.22;98621.16;344051;28;1805;-72
2022/11/19 00:10:17;;;;;;;5.28;2.45;;;;;;;9.13;85.56;98627.31;344447;28;1769;-72
2022/11/19 00:10:29;;;;;;;5.88;2.58;;;;;;;9.18;85.34;98625.41;344119;28;2133;-72
2022/11/19 00:10:41;;;;;;;3.92;2.33;;;;;;;9.07;85.64;98623.25;342660;28;1620;-72
2022/11/19 00:10:53;;;;;;;3.53;2.30;;;;;;;9.06;85.69;98626.75;342205;28;1215;-72
2022/11/19 00:12:53;;;;;;;3.05;2.20;;;;;;;8.99;85.72;98626.19;342010;28;1055;-72
2022/11/19 00:12:55;;;;;;;3.90;2.65;;;;;;;9.10;85.96;98624.88;344521;28;1755;-72
2022/11/19 00:13:07;;;;;;;4.35;2.50;;;;;;;9.05;86.12;98625.06;343806;28;1183;-72
2022/11/19 00:13:19;;;;;;;4.85;2.60;;;;;;;9.05;85.92;98625.06;343739;28;1310;-72
2022/11/19 00:13:31;;;;;;;4.38;2.70;;;;;;;9.11;86.05;98619.63;344793;28;1464;-72
2022/11/19 00:13:43;;;;;;;4.17;2.57;;;;;;;9.15;85.94;98618.56;345138;28;1200;-72
2022/11/19 00:13:55;;;;;;;3.88;2.40;;;;;;;9.17;85.76;98623.69;344888;28;1059;-72
2022/11/19 00:14:09;;;;;;;3.60;2.33;;;;;;;9.14;85.66;98624.69;344558;28;2275;-72
2022/11/19 00:14:22;;;;;;;3.80;2.60;;;;;;;9.17;85.53;98624.53;344140;28;1391;-73
2022/11/19 00:14:34;;;;;;;5.00;2.90;;;;;;;9.20;85.61;98619.22;344900;28;1106;-72
2022/11/19 00:14:46;;;;;;;5.50;3.00;;;;;;;9.23;85.68;98627.78;343985;28;1168;-73
2022/11/19 00:14:58;;;;;;;4.72;2.85;;;;;;;9.23;85.81;98622.59;343301;28;1257;-72
2022/11/19 00:15:10;;;;;;;3.95;2.80;;;;;;;9.26;85.40;98623.31;344776;28;1152;-73
2022/11/19 00:15:22;;;;;;;4.20;2.80;;;;;;;9.27;85.36;98621.56;343649;28;1374;-73
2022/11/19 00:15:35;;;;;;;5.57;2.97;;;;;;;9.29;85.43;98622.31;343804;28;1207;-73
2022/11/19 00:15:47;;;;;;;5.15;2.95;;;;;;;9.33;85.15;98624.69;343460;28;1036;-72
2022/11/19 00:16:10;;;;;;;4.45;2.90;;;;;;;9.30;85.13;98626.63;343339;28;1134;-72
2022/11/19 00:16:22;;;;;;;5.10;2.67;;;;;;;9.25;85.30;98623.38;343759;28;1419;-73
2022/11/19 00:16:34;;;;;;;4.70;2.63;;;;;;;9.28;85.36;98615.47;343788;28;1118;-73
2022/11/19 00:16:46;;;;;;;5.00;2.80;;;;;;;9.22;84.94;98620.94;343835;28;949;-73
2022/11/19 00:16:58;;;;;;;6.70;2.80;;;;;;;9.20;85.48;98618.38;343460;28;2583;-73
2022/11/19 00:17:10;;;;;;;6.45;2.85;;;;;;;9.25;85.38;98620.78;344244;28;1074;-72
2022/11/19 00:17:22;;;;;;;4.90;2.78;;;;;;;9.29;85.11;98622.31;344812;28;1380;-72
2022/11/19 00:17:34;;;;;;;4.03;2.60;;;;;;;9.29;84.93;98622.31;343534;28;1120;-72
2022/11/19 00:17:45;;;;;;;3.85;2.70;;;;;;;9.29;84.93;98623.16;343558;28;1226;-73
2022/11/19 00:17:58;;;;;;;4.82;3.00;;;;;;;9.33;85.03;98618.69;343906;28;737;-72
2022/11/19 00:18:09;;;;;;;5.28;3.13;;;;;;;9.19;84.95;98625.34;343288;28;1170;-72
2022/11/19 00:18:21;;;;;;;4.72;2.90;;;;;;;9.18;85.19;98621.03;343327;28;1413;-72
2022/11/19 00:18:34;;;;;;;4.15;2.78;;;;;;;9.19;85.38;98617.56;343452;28;1055;-72
2022/11/19 00:18:45;;;;;;;3.65;2.70;;;;;;;9.20;85.49;98624.41;343895;28;1061;-72
2022/11/19 00:18:58;;;;;;;3.83;2.50;;;;;;;9.16;85.44;98622.88;344606;28;1051;-72
2022/11/19 00:19:11;;;;;;;3.90;2.50;;;;;;;9.14;85.37;98624.69;344521;28;1258;-72
2022/11/19 00:19:23;;;;;;;4.15;2.70;;;;;;;9.18;85.51;98623.63;343246;28;1347;-72
2022/11/19 00:19:35;;;;;;;4.50;2.80;;;;;;;9.17;85.31;98621.94;343732;28;1204;-73
2022/11/19 00:19:46;;;;;;;3.70;2.50;;;;;;;9.16;85.47;98625.44;345056;28;1011;-73
2022/11/19 00:19:58;;;;;;;3.20;2.20;;;;;;;9.11;85.28;98632.56;344704;28;1241;-72
2022/11/19 00:20:11;;;;;;;4.25;2.30;;;;;;;9.14;85.50;98629.03;343802;28;1283;-72
2022/11/19 00:20:23;;;;;;;5.60;2.40;;;;;;;9.16;85.51;98622.03;343685;28;1102;-72
2022/11/19 00:20:35;;;;;;;5.65;2.47;;;;;;;9.17;85.60;98626.28;342919;28;2117;-72
2022/11/19 00:20:49;;;;;;;3.85;2.50;;;;;;;9.17;85.38;98624.53;343049;28;1793;-72
2022/11/19 00:21:11;;;;;;;3.95;2.53;;;;;;;9.20;85.51;98623.56;343481;28;1075;-72
2022/11/19 00:21:23;;;;;;;3.80;2.60;;;;;;;9.25;85.28;98625.97;343547;28;1206;-72
2022/11/19 00:21:35;;;;;;;4.03;2.70;;;;;;;9.28;85.24;98637.06;344741;28;1280;-72
2022/11/19 00:21:48;;;;;;;5.47;2.60;;;;;;;9.32;85.09;98632.56;344837;28;1015;-72
2022/11/19 00:22:00;;;;;;;4.95;2.47;;;;;;;9.31;84.89;98628.28;344761;28;1764;-73
2022/11/19 00:22:12;;;;;;;4.82;2.40;;;;;;;9.30;84.83;98631.81;344882;28;1317;-72
2022/11/19 00:22:24;;;;;;;4.13;2.38;;;;;;;9.27;85.31;98639.69;344803;28;1346;-73
2022/11/19 00:22:36;;;;;;;4.30;2.40;;;;;;;9.24;84.91;98629.47;343940;28;1785;-73
2022/11/19 00:22:52;;;;;;;3.65;2.28;;;;;;;9.23;84.96;98628.63;343327;28;1031;-73
2022/11/19 00:23:04;;;;;;;3.22;2.10;;;;;;;9.25;85.07;98633.75;343580;28;1080;-73
2022/11/19 00:23:16;;;;;;;4.40;2.10;;;;;;;9.24;84.94;98635.50;343721;28;1293;-72
2022/11/19 00:23:28;;;;;;;3.92;2.00;;;;;;;9.28;84.95;98631.03;344680;28;1402;-73
2022/11/19 00:23:40;;;;;;;3.28;2.05;;;;;;;9.25;84.73;98633.75;344788;28;1066;-73
2022/11/19 00:23:53;;;;;;;3.75;2.10;;;;;;;9.23;84.79;98627.78;344768;28;1073;-72
2022/11/19 00:24:06;;;;;;;3.75;2.13;;;;;;;9.23;85.33;98625.19;344926;28;1195;-72
2022/11/19 00:24:18;;;;;;;3.20;2.08;;;;;;;9.19;85.11;98633.13;344345;28;1935;-72
2022/11/19 00:24:30;;;;;;;3.00;2.05;;;;;;;9.23;84.93;98628.63;345577;28;1047;-72
2022/11/19 00:24:42;;;;;;;3.20;2.20;;;;;;;9.19;85.02;98627.94;346109;28;1075;-72
2022/11/19 00:24:54;;;;;;;3.90;2.35;;;;;;;9.26;85.25;98627.66;346294;28;1043;-72
2022/11/19 00:25:07;;;;;;;3.80;2.35;;;;;;;9.27;84.89;98631.91;346170;28;1060;-72
2022/11/19 00:25:20;;;;;;;3.03;2.22;;;;;;;9.26;85.04;98625.06;344217;28;1222;-73
2022/11/19 00:25:32;;;;;;;2.35;2.05;;;;;;;9.17;84.84;98629.72;342636;28;1686;-73
2022/11/19 00:25:44;;;;;;;2.80;2.10;;;;;;;9.16;85.06;98633.22;343229;28;1042;-73
2022/11/19 00:26:12;;;;;;;3.25;2.25;;;;;;;9.18;85.08;98631.41;343283;28;1023;-73
2022/11/19 00:26:24;;;;;;;3.63;2.10;;;;;;;9.27;84.86;98627.56;343410;28;1344;-72
2022/11/19 00:26:36;;;;;;;3.33;2.00;;;;;;;9.33;84.42;98629.91;342786;28;1735;-73
2022/11/19 00:26:48;;;;;;;3.15;1.95;;;;;;;9.32;84.60;98623.03;342391;28;718;-73
2022/11/19 00:27:00;;;;;;;2.88;1.80;;;;;;;9.35;84.55;98627.25;342007;28;1099;-72
2022/11/19 00:27:12;;;;;;;3.30;1.98;;;;;;;9.23;84.62;98622.59;341981;28;1112;-72
2022/11/19 00:27:24;;;;;;;3.70;2.17;;;;;;;9.27;84.50;98629.31;343926;28;1269;-72
2022/11/19 00:27:36;;;;;;;3.38;1.98;;;;;;;9.31;84.45;98630.88;344934;28;1251;-72
2022/11/19 00:27:49;;;;;;;2.80;1.90;;;;;;;9.25;84.73;98625.97;344955;28;1051;-72
2022/11/19 00:28:01;;;;;;;2.85;1.95;;;;;;;9.23;84.79;98627.78;344108;28;1806;-72
2022/11/19 00:28:12;;;;;;;3.13;2.00;;;;;;;9.23;84.92;98627.78;343566;28;1258;-72
2022/11/19 00:28:24;;;;;;;3.35;2.05;;;;;;;9.19;84.74;98627.94;344536;28;1343;-72
2022/11/19 00:28:37;;;;;;;3.40;2.10;;;;;;;9.18;85.04;98623.63;343659;28;1281;-72
2022/11/19 00:28:49;;;;;;;3.05;2.03;;;;;;;9.20;84.82;98629.59;343227;28;1051;-72
2022/11/19 00:29:01;;;;;;;2.90;1.95;;;;;;;9.22;85.31;98620.94;343212;28;1182;-72
2022/11/19 00:29:13;;;;;;;2.58;1.90;;;;;;;9.23;84.70;98622.59;343537;28;1100;-72
2022/11/19 00:29:29;;;;;;;2.65;1.98;;;;;;;9.23;84.75;98627.78;342036;28;1390;-72
2022/11/19 00:29:41;;;;;;;2.63;2.05;;;;;;;9.19;84.59;98625.34;342650;28;1362;-72
2022/11/19 00:29:53;;;;;;;2.67;2.13;;;;;;;9.17;84.96;98627.13;343706;28;943;-72
2022/11/19 00:30:06;;;;;;;3.60;2.13;;;;;;;9.18;85.00;98621.03;343671;28;1572;-72
2022/11/19 00:30:38;;;;;;;2.47;1.98;;;;;;;9.19;84.88;98622.75;341225;28;1469;-72
2022/11/19 00:31:04;;;;;;;3.72;1.90;;;;;;;9.22;84.79;98618.34;344906;28;1067;-72
2022/11/19 00:31:17;;;;;;;3.40;2.05;;;;;;;9.23;85.16;98626.03;343967;28;2173;-72
2022/11/19 00:31:30;;;;;;;2.75;1.92;;;;;;;9.25;85.22;98624.19;344845;28;1705;-72
2022/11/19 00:31:42;;;;;;;3.50;1.90;;;;;;;9.25;85.02;98620.78;343484;28;1071;-73
2022/11/19 00:31:54;;;;;;;4.78;1.90;;;;;;;9.19;84.83;98622.75;343661;28;1221;-73
2022/11/19 00:32:06;;;;;;;4.68;2.00;;;;;;;9.14;85.46;98619.50;342047;28;1064;-73
2022/11/19 00:32:18;;;;;;;4.57;1.83;;;;;;;9.12;85.13;98620.47;343094;28;1355;-72
2022/11/19 00:32:30;;;;;;;3.90;1.83;;;;;;;9.14;85.46;98622.09;344764;28;1081;-72
2022/11/19 00:32:42;;;;;;;3.75;1.90;;;;;;;9.16;84.96;98620.28;345209;28;1061;-72
2022/11/19 00:32:55;;;;;;;3.45;1.80;;;;;;;9.25;84.96;98615.59;344743;28;1303;-73
2022/11/19 00:33:07;;;;;;;3.80;1.90;;;;;;;9.31;85.13;98616.16;344886;28;1031;-72
2022/11/19 00:33:19;;;;;;;3.65;1.92;;;;;;;9.31;84.56;98620.50;344209;28;1755;-72
2022/11/19 00:33:31;;;;;;;3.72;1.98;;;;;;;9.37;84.60;98617.63;343356;28;1759;-73
2022/11/19 00:33:44;;;;;;;3.92;2.00;;;;;;;9.33;84.41;98618.69;344395;28;1082;-72
2022/11/19 00:33:56;;;;;;;3.22;2.08;;;;;;;9.28;84.46;98620.66;342785;28;2967;-72
2022/11/19 00:34:09;;;;;;;2.83;2.05;;;;;;;9.15;84.51;98626.34;343779;28;4669;-71
2022/11/19 00:34:22;;;;;;;2.67;2.08;;;;;;;9.11;84.87;98619.63;345293;28;1246;-72
2022/11/19 00:34:34;;;;;;;2.70;1.92;;;;;;;9.14;84.75;98624.69;344656;28;4889;-72
2022/11/19 00:34:46;;;;;;;2.65;1.88;;;;;;;9.11;84.94;98624.78;344536;28;1340;-73
2022/11/19 00:34:58;;;;;;;3.38;1.92;;;;;;;9.11;84.85;98624.78;344709;28;1231;-73
2022/11/19 00:35:11;;;;;;;4.75;2.00;;;;;;;9.05;84.83;98622.47;345431;28;970;-72
2022/11/19 00:35:23;;;;;;;4.20;1.88;;;;;;;9.02;85.06;98620.03;345169;28;1979;-72
2022/11/19 00:35:35;;;;;;;3.97;1.88;;;;;;;8.98;85.31;98624.50;344902;28;1594;-72
2022/11/19 00:35:47;;;;;;;2.55;1.70;;;;;;;8.97;85.51;98621.97;343151;28;1287;-72
2022/11/19 00:36:00;;;;;;;2.95;1.90;;;;;;;8.96;85.12;98622.88;342133;28;2875;-72
2022/11/19 00:36:13;;;;;;;3.10;1.92;;;;;;;8.96;85.54;98623.72;343460;28;1808;-71
2022/11/19 00:36:25;;;;;;;3.17;2.00;;;;;;;8.92;85.50;98623.91;342968;28;1286;-72
2022/11/19 00:36:37;;;;;;;2.88;2.10;;;;;;;8.98;85.69;98618.47;343452;28;1082;-72
2022/11/19 00:36:49;;;;;;;2.95;2.00;;;;;;;9.03;85.60;98631.22;342975;28;1009;-72
2022/11/19 00:37:01;;;;;;;3.45;2.03;;;;;;;8.98;85.67;98621.91;343653;28;1067;-73
2022/11/19 00:37:13;;;;;;;3.25;2.00;;;;;;;9.02;85.46;98620.03;344440;28;1174;-71
2022/11/19 00:37:25;;;;;;;3.05;1.95;;;;;;;9.04;85.53;98628.56;343319;28;1303;-71
2022/11/19 00:37:38;;;;;;;3.03;1.90;;;;;;;8.96;85.38;98622.88;343331;28;1185;-71
2022/11/19 00:37:50;;;;;;;4.60;1.97;;;;;;;9.02;85.71;98622.63;343348;28;1268;-71
2022/11/19 00:38:02;;;;;;;4.50;1.98;;;;;;;9.06;85.73;98624.16;344029;28;1069;-71
2022/11/19 00:38:14;;;;;;;4.15;2.00;;;;;;;9.09;85.66;98621.44;343844;28;1286;-71
2022/11/19 00:38:27;;;;;;;4.32;2.10;;;;;;;9.06;85.39;98618.97;343900;28;2121;-71
2022/11/19 00:38:39;;;;;;;4.40;2.00;;;;;;;9.05;85.44;98625.06;344514;28;1084;-72
2022/11/19 00:38:51;;;;;;;3.88;2.03;;;;;;;9.07;85.27;98618.06;344985;28;1178;-72
2022/11/19 00:39:03;;;;;;;3.53;1.90;;;;;;;9.08;85.33;98624.94;344542;28;1070;-72
2022/11/19 00:39:15;;;;;;;3.33;1.95;;;;;;;9.11;85.11;98619.63;345007;28;1051;-72
2022/11/19 00:39:28;;;;;;;4.13;2.10;;;;;;;9.14;84.90;98624.69;343449;28;1858;-71
2022/11/19 00:39:40;;;;;;;4.93;2.28;;;;;;;9.13;85.11;98622.16;345004;28;1646;-72
2022/11/19 00:39:53;;;;;;;4.15;2.10;;;;;;;9.13;85.11;98617.78;344863;28;1059;-71
2022/11/19 00:40:07;;;;;;;3.72;2.13;;;;;;;9.13;85.16;98628.16;344499;28;1089;-71
2022/11/19 00:40:19;;;;;;;4.80;2.20;;;;;;;9.00;85.11;98622.69;344754;28;1353;-72
2022/11/19 00:40:31;;;;;;;4.60;2.13;;;;;;;9.00;85.29;98614.91;344781;28;1172;-72
2022/11/19 00:40:43;;;;;;;3.40;2.10;;;;;;;9.02;85.50;98622.63;345004;28;1838;-72
2022/11/19 00:40:55;;;;;;;4.22;2.28;;;;;;;9.07;85.59;98623.25;344832;28;1097;-72
2022/11/19 00:41:07;;;;;;;3.80;2.10;;;;;;;9.08;85.41;98616.34;345135;28;1031;-71
2022/11/19 00:41:20;;;;;;;4.30;2.03;;;;;;;9.12;85.51;98620.47;345369;28;1434;-71
2022/11/19 00:41:32;;;;;;;4.72;2.05;;;;;;;9.13;85.23;98620.38;344866;28;1451;-71
2022/11/19 00:41:43;;;;;;;4.10;2.20;;;;;;;9.11;85.28;98618.78;344849;28;1059;-72
2022/11/19 00:41:55;;;;;;;3.90;2.30;;;;;;;9.12;85.32;98626.50;343077;28;1080;-71
2022/11/19 00:42:07;;;;;;;5.70;2.30;;;;;;;9.13;85.51;98620.38;344105;28;2482;-71
2022/11/19 00:42:20;;;;;;;5.43;2.20;;;;;;;9.13;85.06;98614.38;343443;28;1697;-72
2022/11/19 00:42:33;;;;;;;5.18;2.10;;;;;;;9.14;85.10;98614.31;343406;28;1342;-72
2022/11/19 00:43:45;;;;;;;4.35;2.00;;;;;;;9.13;85.30;98622.97;344913;28;1363;-72
2022/11/19 00:43:50;;;;;;;3.95;2.30;;;;;;;9.03;85.80;98624.28;344660;28;1229;-71
2022/11/19 00:44:02;;;;;;;3.60;2.40;;;;;;;8.98;85.74;98619.31;345113;28;1207;-72
2022/11/19 00:44:14;;;;;;;3.75;2.42;;;;;;;8.95;86.16;98619.47;344462;28;1519;-72
2022/11/19 00:44:26;;;;;;;3.80;2.40;;;;;;;9.01;85.97;98620.91;343568;28;1099;-72
2022/11/19 00:44:44;;;;;;;3.83;2.37;;;;;;;9.01;85.73;98623.50;343239;28;1063;-72
2022/11/19 00:44:56;;;;;;;3.40;2.33;;;;;;;9.07;85.93;98622.41;343464;28;1284;-73
2022/11/19 00:45:09;;;;;;;2.72;2.10;;;;;;;9.06;85.96;98615.56;343570;28;1005;-71
2022/11/19 00:45:21;;;;;;;2.50;2.13;;;;;;;9.04;85.82;98628.56;343332;28;1182;-71
2022/11/19 00:45:33;;;;;;;3.10;2.20;;;;;;;8.95;85.72;98621.19;342952;28;1984;-72
2022/11/19 00:45:45;;;;;;;4.40;2.30;;;;;;;8.78;85.84;98625.31;342318;28;1281;-72
2022/11/19 00:45:57;;;;;;;3.90;2.20;;;;;;;8.86;86.06;98624.19;341936;28;2175;-73
2022/11/19 00:46:09;;;;;;;3.33;2.20;;;;;;;8.91;86.28;98624.81;341729;28;1061;-71
2022/11/19 00:46:24;;;;;;;4.15;2.10;;;;;;;8.90;86.24;98620.56;341904;28;1356;-71
2022/11/19 00:46:36;;;;;;;4.88;2.20;;;;;;;8.95;86.02;98618.59;342475;28;1110;-72
2022/11/19 00:46:48;;;;;;;4.55;2.38;;;;;;;8.98;85.95;98623.66;342172;28;1123;-71
2022/11/19 00:47:00;;;;;;;4.00;2.30;;;;;;;8.99;86.16;98621.00;342659;28;1301;-72
2022/11/19 00:47:12;;;;;;;2.75;2.20;;;;;;;8.92;85.97;98624.75;344272;28;1218;-71
2022/11/19 00:47:24;;;;;;;3.72;2.20;;;;;;;8.88;86.17;98630.13;343573;28;1650;-72
2022/11/19 00:47:36;;;;;;;3.65;2.10;;;;;;;8.88;86.58;98627.53;343188;28;1072;-71
2022/11/19 00:47:48;;;;;;;2.92;1.90;;;;;;;8.85;86.42;98614.72;344000;28;1019;-71
2022/11/19 00:48:00;;;;;;;3.30;2.05;;;;;;;8.91;86.28;98622.22;344175;28;1433;-71
2022/11/19 00:48:12;;;;;;;4.47;2.13;;;;;;;8.87;86.06;98618.06;343650;28;1994;-73
2022/11/19 00:48:24;;;;;;;5.47;2.17;;;;;;;8.96;86.14;98620.28;345029;28;1339;-73
2022/11/19 00:48:37;;;;;;;5.20;2.20;;;;;;;8.99;86.00;98622.72;344801;28;1174;-73
2022/11/19 00:48:52;;;;;;;3.97;2.30;;;;;;;9.02;85.92;98620.03;344970;28;1091;-73
2022/11/19 00:49:03;;;;;;;3.75;2.20;;;;;;;9.01;86.12;98623.50;344605;28;1188;-73
2022/11/19 00:49:15;;;;;;;3.60;2.20;;;;;;;9.02;86.01;98614.84;344934;28;1983;-73
2022/11/19 00:49:27;;;;;;;3.35;2.30;;;;;;;9.03;85.75;98621.69;345155;28;1197;-73
2022/11/19 00:49:39;;;;;;;3.42;2.40;;;;;;;9.03;86.25;98626.88;344287;28;1640;-73
2022/11/19 00:49:51;;;;;;;4.05;2.38;;;;;;;9.00;85.86;98616.66;344916;28;2651;-73
2022/11/19 00:50:04;;;;;;;4.47;2.30;;;;;;;9.04;85.89;98623.41;345048;28;1081;-71
2022/11/19 00:50:16;;;;;;;4.13;2.10;;;;;;;8.95;86.33;98616.88;344607;28;1769;-72
2022/11/19 00:50:28;;;;;;;3.90;2.10;;;;;;;9.02;85.95;98622.63;344963;28;1098;-72
2022/11/19 00:50:41;;;;;;;3.35;2.15;;;;;;;9.03;85.78;98616.50;345346;28;744;-71
2022/11/19 00:50:53;;;;;;;3.53;2.42;;;;;;;9.07;85.78;98628.44;344870;28;1289;-71
2022/11/19 00:51:08;;;;;;;5.00;2.95;;;;;;;9.10;85.44;98622.28;345498;28;1048;-71
2022/11/19 00:51:22;;;;;;;5.38;3.33;;;;;;;9.10;85.73;98617.94;344926;28;1336;-71
2022/11/19 00:51:35;;;;;;;4.28;2.97;;;;;;;9.06;85.73;98621.56;344349;28;1577;-71
2022/11/19 00:51:47;;;;;;;3.63;2.47;;;;;;;9.04;85.64;98618.22;343779;28;1193;-71
2022/11/19 00:51:59;;;;;;;4.05;2.30;;;;;;;9.02;85.56;98617.44;343773;28;1243;-71
2022/11/19 00:52:11;;;;;;;4.40;2.33;;;;;;;8.98;86.27;98623.66;343517;28;1177;-71
2022/11/19 00:52:23;;;;;;;4.60;2.55;;;;;;;8.99;85.86;98615.81;344385;28;1330;-71
2022/11/19 00:52:35;;;;;;;3.78;2.53;;;;;;;9.01;85.90;98620.91;344920;28;1109;-71
2022/11/19 00:52:47;;;;;;;3.28;2.67;;;;;;;9.02;85.89;98617.44;344815;28;1036;-71
2022/11/19 00:52:59;;;;;;;3.58;2.65;;;;;;;8.97;86.11;98617.63;344713;28;1059;-71
2022/11/19 00:53:11;;;;;;;3.40;2.50;;;;;;;9.00;85.83;98617.50;345060;28;1243;-73
2022/11/19 00:53:23;;;;;;;3.60;2.30;;;;;;;8.95;85.75;98618.59;344754;28;1317;-73
2022/11/19 00:53:35;;;;;;;3.60;2.30;;;;;;;8.98;86.05;98618.47;344971;28;1030;-73
2022/11/19 00:53:47;;;;;;;3.80;2.38;;;;;;;9.02;86.08;98617.44;344714;28;1179;-73
2022/11/19 00:53:59;;;;;;;3.35;2.40;;;;;;;9.00;85.67;98616.66;344850;28;1023;-73
2022/11/19 00:54:11;;;;;;;2.90;2.50;;;;;;;8.92;86.15;98621.31;344794;28;1268;-73
2022/11/19 00:54:23;;;;;;;3.90;2.60;;;;;;;8.92;86.36;98613.56;344758;28;1083;-73
2022/11/19 00:54:35;;;;;;;4.30;2.60;;;;;;;8.93;86.41;98617.81;344659;28;1039;-72
2022/11/19 00:54:47;;;;;;;4.38;2.58;;;;;;;8.97;86.22;98616.78;343706;28;2228;-73
2022/11/19 00:54:59;;;;;;;3.70;2.70;;;;;;;8.89;86.20;98621.44;344687;28;737;-74
2022/11/19 00:55:10;;;;;;;3.65;2.58;;;;;;;8.86;86.64;98614.66;343682;28;1071;-71
2022/11/19 00:55:22;;;;;;;4.22;2.50;;;;;;;8.88;86.76;98618.00;344929;28;1307;-71
2022/11/19 00:55:36;;;;;;;4.55;2.50;;;;;;;8.92;86.47;98613.56;344894;28;1587;-71
2022/11/19 00:55:48;;;;;;;3.83;2.60;;;;;;;8.88;86.50;98617.19;344219;28;1580;-73
2022/11/19 00:56:02;;;;;;;4.30;2.58;;;;;;;8.87;86.49;98613.72;343369;28;1052;-73
2022/11/19 00:56:16;;;;;;;5.63;2.83;;;;;;;8.86;86.58;98613.81;343775;28;1035;-73
2022/11/19 00:56:28;;;;;;;6.88;2.90;;;;;;;8.94;86.49;98616.91;343832;28;2043;-73
2022/11/19 00:56:40;;;;;;;5.75;2.60;;;;;;;8.95;86.23;98618.59;343503;28;1166;-73
2022/11/19 00:56:52;;;;;;;4.85;2.67;;;;;;;8.95;86.29;98623.78;343601;28;1144;-73
2022/11/19 00:57:04;;;;;;;5.05;2.70;;;;;;;8.93;86.38;98623.00;343656;28;2663;-73
2022/11/19 00:57:16;;;;;;;5.03;2.90;;;;;;;8.96;86.33;98613.34;343525;28;1304;-72
2022/11/19 00:57:27;;;;;;;5.78;3.08;;;;;;;9.01;86.09;98618.31;343644;28;1312;-72
2022/11/19 00:57:39;;;;;;;6.57;3.22;;;;;;;9.06;85.85;98616.38;343623;28;1393;-73
2022/11/19 00:57:53;;;;;;;6.35;3.10;;;;;;;9.06;86.14;98616.38;343175;28;1085;-72
2022/11/19 00:58:05;;;;;;;5.10;2.80;;;;;;;9.02;85.78;98606.22;343689;28;1205;-72
2022/11/19 00:58:18;;;;;;;5.32;2.78;;;;;;;9.03;85.65;98606.13;342298;28;3810;-72
2022/11/19 00:58:30;;;;;;;5.00;2.70;;;;;;;9.00;86.17;98617.50;344421;28;2866;-72
2022/11/19 00:58:42;;;;;;;4.50;2.80;;;;;;;9.01;86.25;98613.13;344970;28;1201;-72
2022/11/19 00:58:55;;;;;;;4.60;3.10;;;;;;;8.98;86.08;98618.47;344978;28;2975;-72
2022/11/19 00:59:07;;;;;;;3.97;2.97;;;;;;;8.94;86.31;98617.75;345144;28;1071;-72
2022/11/19 00:59:19;;;;;;;4.95;3.13;;;;;;;8.95;86.30;98609.09;344744;28;1302;-73
2022/11/19 00:59:32;;;;;;;6.22;3.15;;;;;;;8.95;86.20;98618.59;345025;28;1102;-73
2022/11/19 00:59:43;;;;;;;8.17;3.17;;;;;;;8.90;86.40;98610.19;344905;28;1102;-72
2022/11/19 00:59:55;;;;;;;6.70;2.80;;;;;;;8.83;86.41;98614.75;344661;28;1333;-72
2022/11/19 01:00:08;;;;;;;6.30;2.70;;;;;;;8.86;85.99;98613.81;342825;28;2693;-73
2022/11/19 01:00:20;;;;;;;7.15;2.78;;;;;;;8.95;86.45;98608.22;343595;28;1831;-73
2022/11/19 01:00:32;;;;;;;5.38;2.50;;;;;;;8.90;86.32;98617.97;343726;28;1222;-71
2022/11/19 01:00:45;;;;;;;4.55;2.50;;;;;;;8.91;86.29;98617.88;343070;28;1123;-70
2022/11/19 01:00:57;;;;;;;3.83;2.50;;;;;;;8.89;86.64;98613.66;343260;28;1091;-73
2022/11/19 01:01:10;;;;;;;4.00;2.60;;;;;;;8.84;86.72;98616.47;343420;28;1163;-73
2022/11/19 01:01:24;;;;;;;4.57;2.58;;;;;;;8.88;86.69;98617.19;343780;28;1315;-73
2022/11/19 01:01:36;;;;;;;5.47;2.70;;;;;;;8.91;86.59;98609.25;345455;28;1236;-72
2022/11/19 01:01:48;;;;;;;5.30;2.80;;;;;;;8.96;86.56;98615.09;344575;28;1023;-73
2022/11/19 01:02:01;;;;;;;5.05;2.70;;;;;;;8.93;86.35;98615.22;345028;28;1772;-73
2022/11/19 01:02:13;;;;;;;4.43;2.50;;;;;;;8.89;86.41;98618.84;343493;28;1892;-72
2022/11/19 01:02:25;;;;;;;5.53;2.80;;;;;;;8.87;86.49;98615.47;344610;28;1327;-71
2022/11/19 01:02:37;;;;;;;5.10;3.00;;;;;;;8.93;86.52;98615.22;344809;28;1031;-71
2022/11/19 01:02:49;;;;;;;5.40;2.95;;;;;;;8.91;86.48;98612.69;344568;28;1127;-72
2022/11/19 01:03:01;;;;;;;5.15;2.58;;;;;;;9.02;86.57;98612.25;345019;28;1147;-71
2022/11/19 01:03:12;;;;;;;4.47;2.35;;;;;;;9.00;86.29;98616.66;343937;28;1189;-71
2022/11/19 01:03:26;;;;;;;3.97;2.33;;;;;;;9.01;86.61;98613.13;343204;28;1415;-71
2022/11/19 01:03:39;;;;;;;3.30;2.38;;;;;;;8.88;86.24;98612.00;343430;28;1230;-71
2022/11/19 01:03:52;;;;;;;4.63;2.60;;;;;;;8.86;86.74;98613.81;343597;28;1054;-71
2022/11/19 01:04:05;;;;;;;4.38;2.70;;;;;;;8.83;86.83;98613.94;343904;28;1127;-72
2022/11/19 01:04:17;;;;;;;5.15;2.70;;;;;;;8.83;87.03;98619.09;343852;28;3006;-72
2022/11/19 01:04:29;;;;;;;5.07;2.60;;;;;;;8.82;87.01;98617.44;344777;28;1207;-72